createdAt,value
2018-01-17T00:00:11.314Z,97756.48
2018-01-17T00:03:12.649Z,97754.23
2018-01-17T00:06:14.742Z,97745.15
2018-01-17T00:12:24.242Z,97714.87
2018-01-17T00:15:25.659Z,97723.35
2018-01-17T00:18:27.038Z,97719.95
2018-01-17T00:21:28.364Z,97723.22
2018-01-17T00:24:29.718Z,97720.14
2018-01-17T00:27:31.106Z,97712.89
2018-01-17T00:30:32.424Z,97704.02
2018-01-17T00:33:33.874Z,97697.29
2018-01-17T00:36:35.258Z,97691.27
2018-01-17T00:39:37.387Z,97674.89
2018-01-17T00:42:38.759Z,97691.81
2018-01-17T00:45:40.126Z,97679.74
2018-01-17T00:48:41.500Z,97682.87
2018-01-17T00:51:43.596Z,97680.89
2018-01-17T00:54:44.971Z,97675.29
2018-01-17T00:57:46.266Z,97677.47
2018-01-17T01:00:47.628Z,97672.28
2018-01-17T01:03:49.025Z,97681.48
2018-01-17T01:06:50.373Z,97668.86
2018-01-17T01:09:51.714Z,97675.39
2018-01-17T01:12:53.025Z,97675.52
2018-01-17T01:15:54.390Z,97672.14
2018-01-17T01:18:55.743Z,97655.73
2018-01-17T01:21:57.099Z,97669.61
2018-01-17T01:24:58.475Z,97658.77
2018-01-17T01:27:59.763Z,97652.72
2018-01-17T01:31:01.803Z,97648.27
2018-01-17T01:34:03.534Z,97647.00
2018-01-17T01:37:04.844Z,97654.97
2018-01-17T01:40:07.344Z,97643.34
2018-01-17T01:43:09.121Z,97648.95
2018-01-17T01:46:10.939Z,97648.28
2018-01-17T01:49:12.277Z,97653.52
2018-01-17T01:52:14.348Z,97686.91
2018-01-17T01:55:16.406Z,97676.96
2018-01-17T01:58:17.777Z,97660.27
2018-01-17T02:01:19.143Z,97664.79
2018-01-17T02:04:20.472Z,97665.06
2018-01-17T02:07:21.871Z,97657.70
2018-01-17T02:10:23.268Z,97682.50
2018-01-17T02:13:25.441Z,97755.77
2018-01-17T02:16:27.514Z,97791.56
2018-01-17T02:19:28.913Z,97807.43
2018-01-17T02:22:30.246Z,97791.01
2018-01-17T02:25:31.600Z,97802.86
2018-01-17T02:28:32.947Z,97802.88
2018-01-17T02:31:34.377Z,97780.63
2018-01-17T02:34:35.742Z,97812.00
2018-01-17T02:37:37.034Z,97806.19
2018-01-17T02:40:40.227Z,97799.30
2018-01-17T02:43:41.628Z,97782.23
2018-01-17T02:46:43.135Z,97800.98
2018-01-17T02:49:44.376Z,97798.04
2018-01-17T02:52:45.714Z,97796.00
2018-01-17T02:55:47.774Z,97789.13
2018-01-17T02:58:49.079Z,97791.13
2018-01-17T03:01:51.189Z,97780.63
2018-01-17T03:04:52.525Z,97780.39
2018-01-17T03:07:53.874Z,97774.71
2018-01-17T03:10:55.182Z,97787.20
2018-01-17T03:13:57.260Z,97771.76
2018-01-17T03:16:59.339Z,97774.28
2018-01-17T03:20:00.625Z,97772.32
2018-01-17T03:23:01.902Z,97773.34
2018-01-17T03:26:03.220Z,97774.76
2018-01-17T03:29:04.534Z,97772.45
2018-01-17T03:32:06.957Z,97682.05
2018-01-17T03:35:08.754Z,97764.44
2018-01-17T03:38:10.798Z,97749.60
2018-01-17T03:41:12.274Z,97755.85
2018-01-17T03:44:14.446Z,97775.43
2018-01-17T03:47:16.617Z,97778.06
2018-01-17T03:50:18.777Z,97786.91
2018-01-17T03:53:20.985Z,97792.13
2018-01-17T03:56:22.404Z,97809.07
2018-01-17T03:59:24.574Z,97812.40
2018-01-17T04:02:26.785Z,97820.92
2018-01-17T04:05:28.193Z,97818.56
2018-01-17T04:08:30.410Z,97821.41
2018-01-17T04:11:32.652Z,97819.47
2018-01-17T04:14:34.145Z,97815.02
2018-01-17T04:17:35.705Z,97818.28
2018-01-17T04:20:37.110Z,97819.41
2018-01-17T04:23:39.209Z,97822.43
2018-01-17T04:26:40.704Z,97826.98
2018-01-17T04:29:42.137Z,97818.44
2018-01-17T04:32:43.539Z,97836.84
2018-01-17T04:35:45.032Z,97829.72
2018-01-17T04:38:46.477Z,97842.02
2018-01-17T04:41:47.797Z,97835.77
2018-01-17T04:44:49.122Z,97838.18
2018-01-17T04:47:51.181Z,97846.68
2018-01-17T04:50:52.509Z,97838.90
2018-01-17T04:53:53.862Z,97855.12
2018-01-17T04:56:55.197Z,97855.34
2018-01-17T04:59:56.524Z,97863.46
2018-01-17T05:02:57.877Z,97878.93
2018-01-17T05:05:59.235Z,97879.02
2018-01-17T05:09:00.585Z,97888.88
2018-01-17T05:12:01.901Z,97885.29
2018-01-17T05:15:03.921Z,97901.70
2018-01-17T05:18:05.283Z,97896.76
2018-01-17T05:21:06.590Z,97929.49
2018-01-17T05:24:07.932Z,97927.04
2018-01-17T05:27:09.281Z,97938.15
2018-01-17T05:30:10.575Z,97953.27
2018-01-17T05:33:11.983Z,97947.59
2018-01-17T05:36:13.261Z,97960.00
2018-01-17T05:39:14.616Z,97959.98
2018-01-17T05:42:15.986Z,97955.12
2018-01-17T05:45:17.373Z,97970.62
2018-01-17T05:48:19.544Z,97980.57
2018-01-17T05:51:20.806Z,97986.94
2018-01-17T05:54:22.132Z,97994.89
2018-01-17T05:57:23.468Z,97986.60
2018-01-17T06:00:24.789Z,97999.95
2018-01-17T06:03:26.148Z,97996.39
2018-01-17T06:06:27.536Z,97986.24
2018-01-17T06:09:28.914Z,98004.86
2018-01-17T06:12:30.229Z,98005.52
2018-01-17T06:15:32.336Z,98012.51
2018-01-17T06:18:33.692Z,98022.05
2018-01-17T06:21:35.012Z,98022.39
2018-01-17T06:24:36.298Z,98030.32
2018-01-17T06:27:37.645Z,98039.48
2018-01-17T06:30:39.076Z,98044.13
2018-01-17T06:33:40.400Z,98059.92
2018-01-17T06:36:42.432Z,98051.20
2018-01-17T06:39:43.750Z,98050.56
2018-01-17T06:42:45.078Z,98050.20
2018-01-17T06:45:46.436Z,98066.55
2018-01-17T06:48:47.697Z,98082.69
2018-01-17T06:51:49.044Z,98093.20
2018-01-17T06:54:50.343Z,98095.18
2018-01-17T06:57:51.758Z,98103.34
2018-01-17T07:00:52.967Z,98117.92
2018-01-17T07:03:54.948Z,98118.55
2018-01-17T07:06:56.170Z,98137.09
2018-01-17T07:09:58.214Z,98142.01
2018-01-17T07:12:59.501Z,98157.61
2018-01-17T07:16:00.760Z,98158.42
2018-01-17T07:19:02.053Z,98161.73
2018-01-17T07:22:03.330Z,98177.59
2018-01-17T07:25:05.320Z,98165.70
2018-01-17T07:28:06.639Z,98189.39
2018-01-17T07:31:08.686Z,98186.27
2018-01-17T07:34:10.007Z,98181.22
2018-01-17T07:37:11.746Z,98191.36
2018-01-17T07:40:13.069Z,98181.22
2018-01-17T07:43:14.357Z,98192.61
2018-01-17T07:46:15.740Z,98208.34
2018-01-17T07:49:17.010Z,98201.12
2018-01-17T07:52:19.044Z,98205.01
2018-01-17T07:55:20.362Z,98212.90
2018-01-17T07:58:21.645Z,98217.17
2018-01-17T08:01:22.930Z,98198.08
2018-01-17T08:04:24.939Z,98233.17
2018-01-17T08:07:26.216Z,98243.98
2018-01-17T08:10:27.510Z,98249.89
2018-01-17T08:13:28.816Z,98256.55
2018-01-17T08:16:30.101Z,98269.11
2018-01-17T08:19:32.152Z,98272.26
2018-01-17T08:22:33.432Z,98277.36
2018-01-17T08:25:34.698Z,98276.90
2018-01-17T08:28:36.020Z,98293.94
2018-01-17T08:31:37.257Z,98299.45
2018-01-17T08:34:39.286Z,98286.30
2018-01-17T08:37:40.544Z,98300.92
2018-01-17T08:40:41.817Z,98306.53
2018-01-17T08:43:43.830Z,98311.22
2018-01-17T08:46:45.125Z,98316.25
2018-01-17T08:49:47.137Z,98320.59
2018-01-17T08:52:48.420Z,98334.06
2018-01-17T08:55:49.716Z,98340.51
2018-01-17T08:58:51.048Z,98334.66
2018-01-17T09:01:53.115Z,98341.17
2018-01-17T09:04:55.120Z,98325.45
2018-01-17T09:07:56.428Z,98345.19
2018-01-17T09:10:58.448Z,98354.02
2018-01-17T09:13:59.716Z,98380.45
2018-01-17T09:17:01.000Z,98382.28
2018-01-17T09:20:02.390Z,98382.16
2018-01-17T09:23:03.685Z,98401.83
2018-01-17T09:26:05.740Z,98420.77
2018-01-17T09:29:07.036Z,98417.51
2018-01-17T09:32:08.308Z,98433.60
2018-01-17T09:35:09.631Z,98422.98
2018-01-17T09:38:10.906Z,98446.49
2018-01-17T09:41:12.238Z,98451.19
2018-01-17T09:44:13.542Z,98451.17
2018-01-17T09:47:15.536Z,98454.52
2018-01-17T09:50:16.840Z,98430.37
2018-01-17T09:53:18.154Z,98447.80
2018-01-17T09:56:19.486Z,98461.81
2018-01-17T09:59:20.719Z,98467.23
2018-01-17T10:02:22.749Z,98464.89
2018-01-17T10:05:24.056Z,98474.66
2018-01-17T10:08:25.342Z,98466.47
2018-01-17T10:11:26.616Z,98488.41
2018-01-17T10:14:28.611Z,98487.14
2018-01-17T10:17:29.958Z,98499.06
2018-01-17T10:20:31.298Z,98501.83
2018-01-17T10:23:32.618Z,98505.55
2018-01-17T10:26:34.684Z,98506.70
2018-01-17T10:29:36.034Z,98521.59
2018-01-17T10:32:37.287Z,98518.98
2018-01-17T10:35:38.570Z,98536.98
2018-01-17T10:38:39.853Z,98515.00
2018-01-17T10:41:41.174Z,98516.47
2018-01-17T10:44:42.442Z,98527.23
2018-01-17T10:47:43.757Z,98522.95
2018-01-17T10:50:45.086Z,98535.11
2018-01-17T10:53:46.411Z,98539.80
2018-01-17T10:56:47.740Z,98541.18
2018-01-17T10:59:49.010Z,98518.17
2018-01-17T11:02:50.336Z,98538.62
2018-01-17T11:05:51.615Z,98530.92
2018-01-17T11:08:52.935Z,98528.48
2018-01-17T11:11:54.207Z,98532.66
2018-01-17T11:14:55.467Z,98531.67
2018-01-17T11:17:56.820Z,98532.35
2018-01-17T11:20:58.095Z,98535.74
2018-01-17T11:23:59.467Z,98539.51
2018-01-17T11:27:00.776Z,98543.64
2018-01-17T11:30:02.130Z,98534.78
2018-01-17T11:33:04.181Z,98541.62
2018-01-17T11:36:05.533Z,98546.53
2018-01-17T11:39:06.872Z,98547.11
2018-01-17T11:42:08.226Z,98518.47
2018-01-17T11:45:09.554Z,98530.39
2018-01-17T11:48:10.820Z,98523.45
2018-01-17T11:51:12.165Z,98533.48
2018-01-17T11:54:13.402Z,98544.14
2018-01-17T11:57:14.691Z,98534.10
2018-01-17T12:00:17.068Z,98556.98
2018-01-17T12:03:19.073Z,98563.73
2018-01-17T12:06:20.424Z,98552.98
2018-01-17T12:09:21.703Z,98551.34
2018-01-17T12:12:23.012Z,98559.50
2018-01-17T12:15:24.481Z,98562.73
2018-01-17T12:18:25.829Z,98551.43
2018-01-17T12:21:27.357Z,98551.98
2018-01-17T12:24:28.676Z,98543.19
2018-01-17T12:27:30.093Z,98548.41
2018-01-17T12:30:31.436Z,98565.52
2018-01-17T12:33:32.916Z,98544.13
2018-01-17T12:36:34.545Z,98546.83
2018-01-17T12:39:36.071Z,98544.80
2018-01-17T12:42:37.430Z,98557.41
2018-01-17T12:45:38.726Z,98563.52
2018-01-17T12:48:40.064Z,98560.37
2018-01-17T12:51:41.411Z,98555.81
2018-01-17T12:54:42.736Z,98561.08
2018-01-17T12:57:44.123Z,98565.77
2018-01-17T13:00:45.452Z,98568.15
2018-01-17T13:03:46.813Z,98566.80
2018-01-17T13:06:48.114Z,98554.03
2018-01-17T13:09:50.652Z,98563.67
2018-01-17T13:12:51.977Z,98559.13
2018-01-17T13:15:53.291Z,98560.86
2018-01-17T13:18:55.364Z,98574.38
2018-01-17T13:21:56.715Z,98572.88
2018-01-17T13:24:58.216Z,98576.72
2018-01-17T13:27:59.600Z,98596.96
2018-01-17T13:31:08.688Z,98606.56
2018-01-17T13:34:10.158Z,98595.39
2018-01-17T13:37:11.485Z,98606.94
2018-01-17T13:40:12.831Z,98604.41
2018-01-17T13:43:14.197Z,98607.75
2018-01-17T13:46:15.637Z,98608.75
2018-01-17T13:49:16.926Z,98628.09
2018-01-17T13:52:19.025Z,98638.08
2018-01-17T13:55:20.498Z,98629.67
2018-01-17T13:58:21.841Z,98642.02
2018-01-17T14:01:23.242Z,98631.77
2018-01-17T14:04:24.635Z,98636.22
2018-01-17T14:07:25.999Z,98644.84
2018-01-17T14:10:27.442Z,98651.77
2018-01-17T14:13:28.864Z,98676.69
2018-01-17T14:16:30.949Z,98666.54
2018-01-17T14:19:32.292Z,98690.21
2018-01-17T14:22:33.704Z,98686.33
2018-01-17T14:25:35.651Z,98683.88
2018-01-17T14:28:36.997Z,98707.13
2018-01-17T14:31:38.343Z,98714.74
2018-01-17T14:34:39.701Z,98704.91
2018-01-17T14:37:41.035Z,98706.89
2018-01-17T14:40:42.446Z,98710.85
2018-01-17T14:43:44.625Z,98752.92
2018-01-17T14:46:45.980Z,98768.20
2018-01-17T14:49:47.414Z,98766.64
2018-01-17T14:52:49.480Z,98765.78
2018-01-17T14:55:51.612Z,98761.14
2018-01-17T14:58:53.036Z,98790.66
2018-01-17T15:01:54.367Z,98789.39
2018-01-17T15:04:56.428Z,98803.80
2018-01-17T15:07:58.487Z,98807.04
2018-01-17T15:11:00.609Z,98809.20
2018-01-17T15:14:02.032Z,98815.05
2018-01-17T15:17:03.409Z,98827.86
2018-01-17T15:20:04.754Z,98855.45
2018-01-17T15:23:06.086Z,98836.54
2018-01-17T15:26:07.443Z,98838.65
2018-01-17T15:29:08.841Z,98852.47
2018-01-17T15:32:10.166Z,98850.77
2018-01-17T15:35:11.533Z,98860.77
2018-01-17T15:38:12.859Z,98871.85
2018-01-17T15:41:14.204Z,98878.41
2018-01-17T15:44:15.643Z,98882.83
2018-01-17T15:47:16.967Z,98894.59
2018-01-17T15:50:19.039Z,98889.19
2018-01-17T15:53:21.151Z,98905.94
2018-01-17T15:56:22.563Z,98914.69
2018-01-17T15:59:23.847Z,98898.94
2018-01-17T16:02:25.259Z,98904.48
2018-01-17T16:05:26.650Z,98900.71
2018-01-17T16:08:27.960Z,98900.97
2018-01-17T16:11:29.476Z,98907.47
2018-01-17T16:14:30.795Z,98925.41
2018-01-17T16:17:32.120Z,98925.51
2018-01-17T16:20:33.451Z,98930.56
2018-01-17T16:23:35.539Z,98930.70
2018-01-17T16:26:36.962Z,98938.64
2018-01-17T16:29:38.275Z,98955.78
2018-01-17T16:32:39.673Z,98928.77
2018-01-17T16:35:41.728Z,98962.30
2018-01-17T16:38:43.072Z,98981.30
2018-01-17T16:41:44.475Z,98975.93
2018-01-17T16:44:45.888Z,98987.11
2018-01-17T16:47:47.188Z,98990.80
2018-01-17T16:50:48.526Z,98984.76
2018-01-17T16:53:49.985Z,98986.73
2018-01-17T16:56:51.322Z,98992.62
2018-01-17T16:59:52.669Z,98989.02
2018-01-17T17:02:54.018Z,98996.81
2018-01-17T17:05:55.383Z,99009.20
2018-01-17T17:08:56.866Z,99015.22
2018-01-17T17:11:58.219Z,99016.46
2018-01-17T17:14:59.619Z,98998.78
2018-01-17T17:18:01.007Z,99022.05
2018-01-17T17:21:02.410Z,99012.45
2018-01-17T17:24:03.740Z,99007.09
2018-01-17T17:27:05.179Z,99027.52
2018-01-17T17:30:06.540Z,99038.13
2018-01-17T17:33:07.914Z,99050.19
2018-01-17T17:36:09.950Z,99049.30
2018-01-17T17:39:11.316Z,99048.27
2018-01-17T17:42:12.618Z,99057.50
2018-01-17T17:45:13.956Z,99067.20
2018-01-17T17:48:15.272Z,99057.05
2018-01-17T17:51:17.386Z,99059.75
2018-01-17T17:54:18.773Z,99054.35
2018-01-17T17:57:20.106Z,99070.84
2018-01-17T18:00:21.450Z,99083.92
2018-01-17T18:03:22.744Z,99076.73
2018-01-17T18:06:24.907Z,99085.02
2018-01-17T18:09:27.072Z,99087.20
2018-01-17T18:12:29.167Z,99085.09
2018-01-17T18:15:30.576Z,99087.77
2018-01-17T18:18:31.877Z,99071.24
2018-01-17T18:21:33.332Z,99084.96
2018-01-17T18:24:34.671Z,99084.22
2018-01-17T18:27:36.106Z,99089.58
2018-01-17T18:30:38.167Z,99098.20
2018-01-17T18:33:40.278Z,99095.97
2018-01-17T18:36:41.643Z,99108.94
2018-01-17T18:39:43.009Z,99100.38
2018-01-17T18:42:44.463Z,99108.50
2018-01-17T18:45:45.912Z,99106.30
2018-01-17T18:48:49.583Z,99100.52
2018-01-17T18:51:52.496Z,99109.33
2018-01-17T18:54:54.972Z,99108.79
2018-01-17T18:57:57.438Z,99133.91
2018-01-17T19:01:01.350Z,99121.03
2018-01-17T19:04:02.810Z,99118.06
2018-01-17T19:07:04.267Z,99116.83
2018-01-17T19:10:05.685Z,99118.52
2018-01-17T19:13:07.054Z,99127.38
2018-01-17T19:19:17.665Z,99129.26
2018-01-17T19:22:20.657Z,99124.89
2018-01-17T19:25:22.047Z,99135.68
2018-01-17T19:28:23.473Z,99128.82
2018-01-17T19:31:26.246Z,99131.09
2018-01-17T19:34:28.971Z,99117.33
2018-01-17T19:37:30.396Z,99136.32
2018-01-17T19:40:32.584Z,99127.58
2018-01-17T19:43:34.202Z,99135.67
2018-01-17T19:46:37.589Z,99138.67
2018-01-17T19:49:39.229Z,99136.03
2018-01-17T19:52:41.752Z,99127.80
2018-01-17T19:55:44.588Z,99139.39
2018-01-17T19:58:46.061Z,99141.79
2018-01-17T20:01:48.184Z,99141.91
2018-01-17T20:04:50.701Z,99143.61
2018-01-17T20:07:53.320Z,99133.20
2018-01-17T20:10:59.508Z,99151.98
2018-01-17T20:14:00.965Z,99140.03
2018-01-17T20:17:02.786Z,99138.13
2018-01-17T20:20:05.979Z,99148.02
2018-01-17T20:23:11.556Z,99124.98
2018-01-17T20:26:13.069Z,99146.35
2018-01-17T20:29:16.519Z,99154.28
2018-01-17T20:32:18.315Z,99150.94
2018-01-17T20:35:22.476Z,99163.89
2018-01-17T20:38:26.132Z,99135.73
2018-01-17T20:41:28.496Z,99152.92
2018-01-17T20:44:31.512Z,99176.18
2018-01-17T20:47:32.958Z,99161.48
2018-01-17T20:50:35.497Z,99167.25
2018-01-17T20:53:37.144Z,99165.28
2018-01-17T20:56:38.829Z,99176.05
2018-01-17T20:59:40.371Z,99169.93
2018-01-17T21:02:42.234Z,99156.63
2018-01-17T21:05:44.238Z,99147.82
2018-01-17T21:08:48.807Z,99158.05
2018-01-17T21:11:51.225Z,99154.87
2018-01-17T21:14:53.225Z,99158.37
2018-01-17T21:17:55.972Z,99159.36
2018-01-17T21:20:58.409Z,99163.69
2018-01-17T21:23:59.777Z,99162.59
2018-01-17T21:27:01.233Z,99158.73
2018-01-17T21:30:02.749Z,99136.69
2018-01-17T21:33:04.808Z,99166.17
2018-01-17T21:36:06.452Z,99164.67
2018-01-17T21:39:08.842Z,99167.46
2018-01-17T21:42:17.096Z,99167.73
2018-01-17T21:45:24.588Z,99137.75
2018-01-17T21:48:26.145Z,99172.58
2018-01-17T21:51:27.594Z,99184.68
2018-01-17T21:54:29.231Z,99164.84
2018-01-17T21:57:31.503Z,99196.56
2018-01-17T22:00:33.058Z,99182.52
2018-01-17T22:03:34.632Z,99184.72
2018-01-17T22:06:36.071Z,99179.53
2018-01-17T22:09:37.527Z,99165.64
2018-01-17T22:12:39.076Z,99174.53
2018-01-17T22:15:40.594Z,99166.86
2018-01-17T22:18:42.829Z,99162.91
2018-01-17T22:21:44.297Z,99153.44
2018-01-17T22:24:45.951Z,99155.62
2018-01-17T22:27:48.236Z,99158.57
2018-01-17T22:30:50.701Z,99142.75
2018-01-17T22:33:52.164Z,99146.16
2018-01-17T22:36:53.645Z,99133.53
2018-01-17T22:39:55.831Z,99142.27
2018-01-17T22:42:57.284Z,99135.20
2018-01-17T22:45:58.754Z,99129.92
2018-01-17T22:49:00.134Z,99130.78
2018-01-17T22:52:03.196Z,99138.41
2018-01-17T22:55:04.687Z,99154.63
2018-01-17T22:58:06.131Z,99140.27
2018-01-17T23:01:07.562Z,99127.58
2018-01-17T23:04:09.059Z,99144.48
2018-01-17T23:07:10.562Z,99143.38
2018-01-17T23:10:12.302Z,99127.70
2018-01-17T23:13:13.811Z,99135.23
2018-01-17T23:16:15.282Z,99136.09
2018-01-17T23:19:17.530Z,99125.09
2018-01-17T23:22:18.959Z,99124.70
2018-01-17T23:28:28.709Z,99119.05
2018-01-17T23:31:30.144Z,99128.91
2018-01-17T23:34:31.556Z,99121.12
2018-01-17T23:37:33.023Z,99104.60
2018-01-17T23:40:35.219Z,99108.99
2018-01-17T23:43:36.729Z,99098.23
2018-01-17T23:46:38.168Z,99098.06
2018-01-17T23:49:39.649Z,99091.45
2018-01-17T23:52:41.851Z,99091.22
2018-01-17T23:55:43.332Z,99092.06
2018-01-17T23:58:44.753Z,99062.13
